Time;durP1;ratioP1;P1;durP2;ratioP2;P2;SDS_P1;SDS_P2;PMS_P1;PMS_P2;Temp;Humidity;BMP_temperature;BMP_pressure;BME280_temperature;BME280_humidity;BME280_pressure;Samples;Min_cycle;Max_cycle;Signal;HPM_P1;HPM_P2
2022/03/25 00:00:12;;;;;;;5.72;4.95;;;16.90;54.00;;;;;;4445101;32;20420;-73
2022/03/25 00:02:40;;;;;;;5.63;4.97;;;16.80;54.00;;;;;;4444969;32;20526;-73
2022/03/25 00:05:06;;;;;;;5.35;4.85;;;16.90;54.10;;;;;;4444840;32;20215;-73
2022/03/25 00:07:34;;;;;;;4.93;4.43;;;16.80;54.00;;;;;;4444696;32;20121;-73
2022/03/25 00:10:01;;;;;;;5.13;4.63;;;16.90;54.10;;;;;;4444819;32;20171;-73
2022/03/25 00:12:26;;;;;;;5.63;5.05;;;16.80;54.10;;;;;;4444977;32;20120;-73
2022/03/25 00:14:52;;;;;;;5.68;5.07;;;16.80;54.30;;;;;;4430905;32;20551;-73
2022/03/25 00:17:18;;;;;;;5.43;4.93;;;16.80;54.10;;;;;;4445075;32;20074;-73
2022/03/25 00:19:44;;;;;;;5.10;4.60;;;16.80;54.00;;;;;;4445035;32;20514;-73
2022/03/25 00:22:10;;;;;;;5.28;4.78;;;16.80;54.00;;;;;;4444998;32;20058;-73
2022/03/25 00:24:36;;;;;;;6.00;4.78;;;16.80;54.00;;;;;;4444895;32;20082;-73
2022/03/25 00:27:04;;;;;;;5.47;4.70;;;16.80;54.10;;;;;;4444797;32;20132;-73
2022/03/25 00:29:30;;;;;;;4.93;4.40;;;16.80;54.10;;;;;;4431163;32;20133;-73
2022/03/25 00:31:55;;;;;;;5.22;4.40;;;16.80;54.00;;;;;;4444719;32;20148;-73
2022/03/25 00:34:21;;;;;;;5.85;4.90;;;16.80;54.00;;;;;;4444595;32;20223;-73
2022/03/25 00:36:47;;;;;;;5.10;4.60;;;16.80;54.00;;;;;;4444678;32;20086;-73
2022/03/25 00:39:13;;;;;;;5.45;4.75;;;16.80;54.00;;;;;;4444510;32;20074;-73
2022/03/25 00:41:39;;;;;;;5.80;4.93;;;16.80;54.00;;;;;;4444800;32;20070;-73
2022/03/25 00:44:05;;;;;;;5.25;4.47;;;16.80;54.00;;;;;;4444869;32;20088;-72
2022/03/25 00:46:31;;;;;;;5.18;4.53;;;16.80;54.00;;;;;;4444798;32;20098;-73
2022/03/25 00:48:57;;;;;;;5.15;4.50;;;16.80;54.00;;;;;;4444364;32;20093;-73
2022/03/25 00:51:23;;;;;;;5.13;4.63;;;16.80;54.00;;;;;;4430850;32;20070;-73
2022/03/25 00:53:48;;;;;;;4.90;4.43;;;16.80;54.00;;;;;;4444733;32;20487;-73
2022/03/25 00:56:14;;;;;;;4.90;4.40;;;16.90;54.00;;;;;;4444596;32;20200;-73
2022/03/25 00:58:40;;;;;;;5.03;4.32;;;16.80;53.90;;;;;;4430792;32;20117;-73
2022/03/25 01:01:06;;;;;;;4.75;4.28;;;16.80;53.90;;;;;;4444492;32;20137;-73
2022/03/25 01:03:37;;;;;;;4.40;3.97;;;16.80;53.80;;;;;;4444209;32;20526;-73
2022/03/25 01:06:03;;;;;;;5.63;4.38;;;16.90;53.90;;;;;;4444675;32;20075;-73
2022/03/25 01:08:29;;;;;;;4.47;4.07;;;16.90;53.80;;;;;;4444443;32;20054;-73
2022/03/25 01:10:55;;;;;;;5.28;4.70;;;16.90;53.80;;;;;;4444555;32;20810;-73
2022/03/25 01:13:22;;;;;;;5.63;4.70;;;16.90;53.80;;;;;;4444420;32;20062;-73
2022/03/25 01:15:49;;;;;;;5.38;4.15;;;16.90;53.70;;;;;;4418353;32;20207;-73
2022/03/25 01:18:15;;;;;;;4.32;3.92;;;16.90;53.70;;;;;;4430367;32;20076;-73
2022/03/25 01:20:42;;;;;;;4.63;4.22;;;16.90;53.70;;;;;;4444571;32;20089;-73
2022/03/25 01:23:09;;;;;;;4.32;3.92;;;16.90;53.60;;;;;;4444504;32;20097;-73
2022/03/25 01:25:36;;;;;;;4.90;4.35;;;17.00;53.70;;;;;;4430706;32;20129;-73
2022/03/25 01:28:02;;;;;;;4.00;3.60;;;17.00;53.60;;;;;;4430539;32;20256;-73
2022/03/25 01:30:28;;;;;;;5.30;4.80;;;17.00;53.60;;;;;;4444491;32;20062;-73
2022/03/25 01:32:55;;;;;;;5.00;4.00;;;17.00;53.50;;;;;;4444586;32;20070;-73
2022/03/25 01:35:24;;;;;;;4.55;4.07;;;17.00;53.50;;;;;;4444250;32;20086;-73
2022/03/25 01:37:50;;;;;;;4.25;3.65;;;17.00;53.50;;;;;;4444388;32;20085;-73
2022/03/25 01:40:16;;;;;;;3.88;3.47;;;17.00;53.50;;;;;;4444468;32;20187;-73
2022/03/25 01:42:42;;;;;;;4.95;4.30;;;17.00;53.50;;;;;;4444396;32;20252;-73
2022/03/25 01:45:11;;;;;;;4.43;3.38;;;17.00;53.50;;;;;;4444398;32;20496;-73
2022/03/25 01:47:38;;;;;;;4.10;3.70;;;17.00;53.40;;;;;;4444377;32;20074;-73
2022/03/25 01:50:16;;;;;;;3.97;3.60;;;17.00;53.40;;;;;;4446503;32;20239;-73
2022/03/25 01:52:42;;;;;;;4.07;3.50;;;17.00;53.40;;;;;;4447425;32;20062;-73
2022/03/25 01:55:18;;;;;;;6.82;3.97;;;17.00;53.40;;;;;;4446750;32;20223;-73
2022/03/25 01:57:44;;;;;;;4.10;3.70;;;17.00;53.40;;;;;;4446755;32;20070;-73
2022/03/25 02:00:14;;;;;;;4.57;3.75;;;17.00;53.40;;;;;;4446991;32;20404;-72
2022/03/25 02:02:39;;;;;;;4.10;3.70;;;17.00;53.40;;;;;;4446892;32;20070;-73
2022/03/25 02:05:06;;;;;;;3.95;3.60;;;17.00;53.40;;;;;;4446420;32;20073;-73
2022/03/25 02:07:32;;;;;;;4.15;3.45;;;17.00;53.40;;;;;;4446761;32;20517;-73
2022/03/25 02:09:59;;;;;;;4.13;3.45;;;17.00;53.40;;;;;;4447077;32;20074;-73
2022/03/25 02:12:25;;;;;;;3.47;3.00;;;17.10;53.40;;;;;;4432706;32;20410;-73
2022/03/25 02:14:51;;;;;;;3.75;3.35;;;17.00;53.40;;;;;;4446776;32;20070;-73
2022/03/25 02:17:17;;;;;;;3.90;3.50;;;17.10;53.40;;;;;;4446759;32;20085;-73
2022/03/25 02:19:43;;;;;;;4.07;3.15;;;17.10;53.40;;;;;;4446671;32;20120;-73
2022/03/25 02:22:09;;;;;;;4.32;3.65;;;17.10;53.40;;;;;;4446763;32;20074;-73
2022/03/25 02:24:35;;;;;;;3.97;3.58;;;17.10;53.40;;;;;;4446742;32;20124;-73
2022/03/25 02:27:02;;;;;;;3.35;3.03;;;17.10;53.30;;;;;;4446707;32;20388;-73
2022/03/25 02:29:29;;;;;;;4.10;3.20;;;17.10;53.30;;;;;;4446591;32;20084;-73
2022/03/25 02:31:54;;;;;;;4.00;2.83;;;17.10;53.30;;;;;;4446548;32;20077;-73
2022/03/25 02:34:20;;;;;;;4.65;3.42;;;17.10;53.30;;;;;;4445783;32;20082;-73
2022/03/25 02:36:47;;;;;;;3.33;3.03;;;17.10;53.30;;;;;;4446241;32;20137;-73
2022/03/25 02:39:15;;;;;;;3.53;3.22;;;17.10;53.20;;;;;;4446467;32;20179;-73
2022/03/25 02:41:41;;;;;;;3.55;3.03;;;17.10;53.20;;;;;;4432267;32;20086;-73
2022/03/25 02:44:08;;;;;;;3.20;2.90;;;17.10;53.20;;;;;;4446155;32;20070;-73
2022/03/25 02:46:34;;;;;;;3.30;3.00;;;17.10;53.10;;;;;;4446307;32;20179;-73
2022/03/25 02:49:01;;;;;;;3.33;3.03;;;17.10;53.10;;;;;;4446332;32;20200;-73
2022/03/25 02:51:27;;;;;;;3.85;2.75;;;17.20;53.10;;;;;;4446274;32;20125;-73
2022/03/25 02:53:53;;;;;;;3.55;3.22;;;17.20;53.10;;;;;;4445950;32;20113;-73
2022/03/25 02:56:19;;;;;;;3.47;3.05;;;17.20;53.10;;;;;;4432319;32;20077;-73
2022/03/25 02:58:45;;;;;;;4.38;2.83;;;17.20;53.10;;;;;;4446181;32;20066;-73
2022/03/25 03:01:12;;;;;;;3.65;2.95;;;17.20;53.10;;;;;;4445722;32;20136;-73
2022/03/25 03:03:38;;;;;;;3.15;2.85;;;17.20;53.00;;;;;;4445736;32;20609;-72
2022/03/25 03:06:05;;;;;;;3.35;3.05;;;17.20;53.00;;;;;;4446068;32;20404;-73
2022/03/25 03:08:31;;;;;;;3.80;3.40;;;17.20;53.00;;;;;;4445912;32;20073;-73
2022/03/25 03:10:57;;;;;;;3.40;3.10;;;17.20;53.00;;;;;;4446126;32;20089;-73
2022/03/25 03:13:23;;;;;;;3.28;2.95;;;17.20;53.10;;;;;;4431745;32;20528;-73
2022/03/25 03:15:50;;;;;;;3.13;2.83;;;17.20;53.00;;;;;;4445908;32;20070;-73
2022/03/25 03:18:16;;;;;;;4.10;3.08;;;17.10;53.00;;;;;;4445721;32;20484;-73
2022/03/25 03:20:42;;;;;;;3.60;3.00;;;17.20;53.00;;;;;;4446094;32;20074;-73
2022/03/25 03:23:09;;;;;;;3.78;2.90;;;17.10;53.00;;;;;;4445797;32;20090;-73
2022/03/25 03:25:35;;;;;;;2.92;2.63;;;17.10;52.90;;;;;;4445707;32;20216;-73
2022/03/25 03:28:01;;;;;;;3.38;2.85;;;17.20;53.00;;;;;;4448629;32;20224;-73
2022/03/25 03:30:28;;;;;;;3.58;3.25;;;17.20;53.00;;;;;;4430150;32;20097;-73
2022/03/25 03:32:58;;;;;;;3.47;3.00;;;17.20;53.00;;;;;;4429238;32;20082;-73
2022/03/25 03:35:25;;;;;;;3.22;2.70;;;17.20;52.90;;;;;;4430119;32;20114;-73
2022/03/25 03:37:52;;;;;;;3.97;2.70;;;17.20;52.90;;;;;;4430125;32;20493;-73
2022/03/25 03:40:18;;;;;;;3.08;2.78;;;17.20;52.90;;;;;;4430120;32;20169;-73
2022/03/25 03:42:45;;;;;;;3.45;3.15;;;17.20;53.80;;;;;;4430082;32;20166;-73
2022/03/25 03:45:12;;;;;;;3.40;3.00;;;17.20;52.90;;;;;;4428786;32;20070;-73
2022/03/25 03:47:40;;;;;;;3.28;2.92;;;17.20;52.90;;;;;;4429752;32;20079;-73
2022/03/25 03:50:09;;;;;;;2.75;2.55;;;17.20;52.90;;;;;;4429946;32;20078;-73
2022/03/25 03:52:35;;;;;;;4.05;3.15;;;17.20;52.90;;;;;;4429875;32;20101;-73
2022/03/25 03:55:03;;;;;;;3.45;2.90;;;17.20;52.90;;;;;;4428929;32;20594;-73
2022/03/25 03:57:29;;;;;;;2.80;2.60;;;17.20;52.90;;;;;;4429806;32;20090;-73
2022/03/25 03:59:55;;;;;;;3.30;3.00;;;17.20;52.90;;;;;;4429607;32;20082;-73
2022/03/25 04:02:21;;;;;;;2.80;2.60;;;17.10;52.90;;;;;;4429887;32;20070;-73
2022/03/25 04:04:47;;;;;;;3.50;2.85;;;17.10;52.90;;;;;;4429153;32;20389;-73
2022/03/25 04:07:15;;;;;;;3.28;2.95;;;17.20;52.90;;;;;;4428569;32;20252;-73
2022/03/25 04:09:41;;;;;;;3.33;2.58;;;17.10;52.90;;;;;;4429952;32;20500;-73
2022/03/25 04:12:12;;;;;;;2.80;2.55;;;17.10;52.90;;;;;;4429278;32;20084;-73
2022/03/25 04:14:39;;;;;;;2.72;2.33;;;17.10;52.90;;;;;;4429793;32;20114;-73
2022/03/25 04:17:05;;;;;;;3.20;2.90;;;17.10;52.90;;;;;;4429734;32;20074;-73
2022/03/25 04:19:31;;;;;;;2.47;2.28;;;17.10;53.00;;;;;;4429668;32;20075;-73
2022/03/25 04:21:57;;;;;;;2.88;2.67;;;17.10;53.00;;;;;;4429709;32;20523;-73
2022/03/25 04:24:23;;;;;;;3.85;2.80;;;17.10;53.00;;;;;;4429461;32;20090;-73
2022/03/25 04:26:49;;;;;;;2.95;2.70;;;17.10;53.00;;;;;;4429474;32;20082;-73
2022/03/25 04:29:14;;;;;;;3.80;2.78;;;17.10;53.00;;;;;;4429500;32;20225;-73
2022/03/25 04:31:41;;;;;;;2.90;2.60;;;17.10;53.00;;;;;;4429705;32;20086;-73
2022/03/25 04:34:07;;;;;;;3.03;2.42;;;17.10;53.00;;;;;;4429142;32;20066;-73
2022/03/25 04:36:34;;;;;;;3.00;2.70;;;17.10;53.00;;;;;;4429526;32;20106;-74
2022/03/25 04:39:00;;;;;;;3.28;2.85;;;17.10;53.00;;;;;;4429459;32;20428;-73
2022/03/25 04:41:26;;;;;;;3.00;2.50;;;17.10;53.00;;;;;;4429053;32;20164;-73
2022/03/25 04:43:52;;;;;;;3.22;2.85;;;17.10;53.00;;;;;;4429262;32;20164;-74
2022/03/25 04:46:18;;;;;;;3.20;2.90;;;17.10;52.90;;;;;;4429325;32;20129;-73
2022/03/25 04:48:46;;;;;;;3.00;2.70;;;17.10;52.90;;;;;;4429377;32;20074;-73
2022/03/25 04:51:12;;;;;;;2.70;2.45;;;17.10;52.90;;;;;;4429380;32;20093;-73
2022/03/25 04:53:38;;;;;;;3.22;2.83;;;17.10;52.90;;;;;;4429352;32;20070;-73
2022/03/25 04:56:04;;;;;;;3.45;2.47;;;17.10;52.90;;;;;;4429293;32;20130;-73
2022/03/25 04:58:30;;;;;;;3.05;2.75;;;17.10;52.90;;;;;;4429049;32;20083;-73
2022/03/25 05:00:56;;;;;;;2.90;2.70;;;17.10;52.90;;;;;;4429066;32;20086;-74
2022/03/25 05:03:23;;;;;;;2.72;2.53;;;17.10;52.90;;;;;;4428325;32;20063;-73
2022/03/25 05:05:49;;;;;;;3.00;2.70;;;17.10;52.90;;;;;;4428911;32;20088;-73
2022/03/25 05:08:16;;;;;;;2.30;2.10;;;17.10;52.90;;;;;;4428960;32;20070;-73
2022/03/25 05:10:42;;;;;;;3.30;3.00;;;17.10;52.90;;;;;;4429171;32;20112;-73
2022/03/25 05:13:08;;;;;;;3.10;2.75;;;17.10;52.90;;;;;;4428897;32;20067;-73
2022/03/25 05:15:34;;;;;;;2.92;2.63;;;17.10;52.90;;;;;;4429053;32;20071;-74
2022/03/25 05:18:00;;;;;;;2.90;2.60;;;17.10;53.00;;;;;;4429185;32;20287;-73
2022/03/25 05:20:26;;;;;;;3.10;2.78;;;17.10;52.90;;;;;;4429190;32;20102;-73
2022/03/25 05:22:52;;;;;;;4.10;2.88;;;17.10;53.00;;;;;;4429189;32;20055;-74
2022/03/25 05:25:19;;;;;;;3.28;2.47;;;17.10;53.00;;;;;;4431824;32;20176;-73
2022/03/25 05:27:47;;;;;;;2.75;2.42;;;17.10;53.00;;;;;;4432251;32;20493;-73
2022/03/25 05:30:14;;;;;;;2.70;2.50;;;17.10;52.90;;;;;;4432009;32;20071;-73
2022/03/25 05:32:42;;;;;;;2.78;2.55;;;17.10;52.90;;;;;;4431731;32;20164;-73
2022/03/25 05:35:09;;;;;;;2.50;2.30;;;17.10;52.90;;;;;;4431373;32;20496;-73
2022/03/25 05:37:36;;;;;;;2.90;2.58;;;17.20;52.90;;;;;;4431576;32;20497;-73
2022/03/25 05:40:03;;;;;;;2.85;2.55;;;17.10;52.90;;;;;;4431951;32;20428;-73
2022/03/25 05:42:29;;;;;;;2.17;1.98;;;17.10;52.90;;;;;;4431898;32;20082;-73
2022/03/25 05:44:55;;;;;;;2.92;2.42;;;17.10;52.90;;;;;;4431858;32;20407;-73
2022/03/25 05:47:21;;;;;;;2.60;2.40;;;17.10;52.90;;;;;;4431557;32;20216;-73
2022/03/25 05:49:48;;;;;;;2.85;2.40;;;17.10;52.90;;;;;;4431574;32;20488;-73
2022/03/25 05:52:14;;;;;;;2.88;2.40;;;17.10;52.90;;;;;;4431423;32;20097;-73
2022/03/25 05:54:40;;;;;;;2.63;2.40;;;17.20;52.90;;;;;;4431445;32;20066;-73
2022/03/25 05:57:06;;;;;;;3.50;2.13;;;17.10;52.90;;;;;;4431738;32;20146;-73
2022/03/25 05:59:32;;;;;;;2.55;2.20;;;17.10;53.90;;;;;;4431746;32;20565;-73
2022/03/25 06:01:58;;;;;;;2.63;2.42;;;17.10;52.90;;;;;;4431627;32;20089;-73
2022/03/25 06:04:24;;;;;;;2.33;2.13;;;17.10;52.90;;;;;;4430833;32;20093;-72
2022/03/25 06:06:50;;;;;;;2.47;2.28;;;17.10;52.90;;;;;;4431416;32;20583;-73
2022/03/25 06:09:15;;;;;;;2.28;1.92;;;17.10;52.90;;;;;;4431278;32;20074;-73
2022/03/25 06:11:41;;;;;;;2.65;2.30;;;17.20;53.00;;;;;;4431149;32;20082;-73
2022/03/25 06:14:07;;;;;;;2.70;2.50;;;17.10;53.00;;;;;;4431375;32;20089;-73
2022/03/25 06:16:33;;;;;;;2.20;2.00;;;17.20;53.00;;;;;;4431499;32;20627;-73
2022/03/25 06:18:59;;;;;;;2.72;2.20;;;17.10;52.90;;;;;;4431396;32;20081;-73
2022/03/25 06:21:25;;;;;;;2.78;2.20;;;17.20;53.10;;;;;;4431239;32;20153;-73
2022/03/25 06:23:51;;;;;;;2.40;2.20;;;17.20;53.10;;;;;;4431322;32;20062;-73
2022/03/25 06:26:17;;;;;;;2.75;2.20;;;17.10;53.00;;;;;;4431212;32;20109;-73
2022/03/25 06:28:43;;;;;;;2.28;2.05;;;17.10;53.10;;;;;;4431011;32;20125;-74
2022/03/25 06:31:09;;;;;;;2.10;1.90;;;17.10;53.00;;;;;;4430893;32;20155;-73
2022/03/25 06:33:39;;;;;;;2.35;1.90;;;17.20;53.10;;;;;;4430107;32;20074;-73
2022/03/25 06:36:07;;;;;;;2.20;2.00;;;17.10;53.10;;;;;;4429459;32;20393;-73
2022/03/25 06:38:33;;;;;;;2.28;2.08;;;17.10;53.10;;;;;;4430736;32;20125;-74
2022/03/25 06:41:01;;;;;;;2.65;2.10;;;17.10;53.10;;;;;;4431024;32;20503;-74
2022/03/25 06:43:27;;;;;;;2.28;2.00;;;17.10;53.20;;;;;;4430929;32;20078;-73
2022/03/25 06:45:53;;;;;;;2.58;2.33;;;17.10;53.20;;;;;;4429533;32;20135;-74
2022/03/25 06:48:19;;;;;;;2.42;2.22;;;17.10;53.20;;;;;;4431017;32;20216;-74
2022/03/25 06:50:46;;;;;;;2.55;2.20;;;17.10;53.30;;;;;;4430817;32;20082;-74
2022/03/25 06:53:12;;;;;;;2.22;2.03;;;17.10;53.40;;;;;;4430831;32;20086;-74
2022/03/25 06:55:40;;;;;;;2.80;2.30;;;17.10;53.30;;;;;;4430877;32;20092;-74
2022/03/25 06:58:06;;;;;;;2.20;2.00;;;17.10;53.40;;;;;;4430815;32;20090;-74
2022/03/25 07:00:33;;;;;;;2.20;2.00;;;17.10;53.30;;;;;;4430805;32;20074;-73
2022/03/25 07:02:59;;;;;;;2.30;2.10;;;17.10;53.40;;;;;;4430785;32;20089;-74
2022/03/25 07:05:25;;;;;;;2.60;2.40;;;17.20;53.40;;;;;;4429924;32;20078;-73
2022/03/25 07:07:52;;;;;;;2.33;2.10;;;17.20;53.50;;;;;;4429350;32;20074;-74
2022/03/25 07:10:23;;;;;;;2.20;1.73;;;17.20;53.50;;;;;;4430466;32;20428;-73
2022/03/25 07:12:49;;;;;;;2.33;1.83;;;17.20;53.40;;;;;;4430723;32;20133;-73
2022/03/25 07:15:15;;;;;;;1.90;1.80;;;17.20;53.40;;;;;;4430511;32;20164;-73
2022/03/25 07:17:43;;;;;;;2.50;1.85;;;17.20;53.40;;;;;;4430456;32;20086;-73
2022/03/25 07:20:14;;;;;;;2.42;2.17;;;17.20;53.40;;;;;;4430505;32;20062;-73
2022/03/25 07:22:41;;;;;;;2.05;1.80;;;17.30;53.50;;;;;;4430158;32;20078;-74
2022/03/25 07:25:07;;;;;;;2.00;1.73;;;17.20;53.50;;;;;;4429252;32;20097;-73
2022/03/25 07:27:33;;;;;;;2.15;1.92;;;17.20;53.50;;;;;;4430395;32;20571;-73
2022/03/25 07:29:59;;;;;;;2.45;2.13;;;17.20;53.50;;;;;;4430283;32;20124;-73
2022/03/25 07:32:25;;;;;;;2.03;1.80;;;17.30;53.50;;;;;;4429936;32;20532;-73
2022/03/25 07:34:52;;;;;;;2.40;2.05;;;17.20;53.50;;;;;;4430046;32;20169;-73
2022/03/25 07:37:17;;;;;;;2.25;2.05;;;17.30;53.50;;;;;;4430115;32;20192;-74
2022/03/25 07:39:44;;;;;;;2.17;1.98;;;17.20;53.50;;;;;;4430094;32;20121;-74
2022/03/25 07:42:10;;;;;;;2.42;2.13;;;17.30;53.50;;;;;;4430220;32;20066;-73
2022/03/25 07:44:39;;;;;;;2.75;2.20;;;17.30;53.60;;;;;;4428995;32;20559;-74
2022/03/25 07:47:05;;;;;;;2.60;2.20;;;17.30;53.60;;;;;;4429467;32;20428;-73
2022/03/25 07:49:34;;;;;;;2.63;2.15;;;17.30;53.60;;;;;;4429848;32;20067;-73
2022/03/25 07:52:03;;;;;;;2.85;2.47;;;17.30;53.60;;;;;;4429693;32;20168;-73
2022/03/25 07:54:29;;;;;;;2.40;2.10;;;17.30;53.60;;;;;;4429929;32;20075;-73
2022/03/25 07:56:58;;;;;;;2.25;2.00;;;17.30;53.60;;;;;;4429894;32;20136;-73
2022/03/25 07:59:28;;;;;;;3.40;2.40;;;17.30;53.60;;;;;;4429771;32;20107;-73
2022/03/25 08:01:55;;;;;;;2.25;2.00;;;17.30;53.70;;;;;;4428849;32;20125;-73
2022/03/25 08:04:24;;;;;;;2.10;1.90;;;17.30;53.70;;;;;;4429520;32;20090;-73
2022/03/25 08:06:51;;;;;;;2.75;2.30;;;17.20;53.80;;;;;;4429792;32;20416;-73
2022/03/25 08:09:17;;;;;;;2.15;1.95;;;17.20;53.80;;;;;;4428356;32;20224;-73
2022/03/25 08:11:45;;;;;;;2.50;2.30;;;17.20;53.80;;;;;;4429506;32;20527;-73
2022/03/25 08:14:14;;;;;;;2.50;2.30;;;17.20;53.80;;;;;;4429543;32;20078;-73
2022/03/25 08:16:42;;;;;;;2.92;2.35;;;17.20;53.90;;;;;;4429713;32;20128;-73
2022/03/25 08:19:08;;;;;;;2.83;2.50;;;17.20;53.90;;;;;;4429827;32;20619;-73
2022/03/25 08:21:34;;;;;;;3.13;2.35;;;17.20;54.00;;;;;;4429657;32;20110;-73
2022/03/25 08:29:28;;;;;;;2.53;2.05;;;17.20;54.00;;;;;;4429708;32;20140;-73
2022/03/25 08:31:54;;;;;;;2.53;2.30;;;17.20;54.10;;;;;;4429647;32;20090;-73
2022/03/25 08:34:21;;;;;;;3.25;2.53;;;17.20;54.10;;;;;;4429289;32;20067;-73
2022/03/25 08:36:49;;;;;;;2.80;2.60;;;17.20;54.10;;;;;;4429437;32;20516;-73
2022/03/25 08:39:17;;;;;;;2.85;2.50;;;17.20;54.10;;;;;;4429396;32;20487;-73
2022/03/25 08:41:43;;;;;;;2.60;2.40;;;17.30;54.20;;;;;;4429438;32;20439;-74
2022/03/25 08:44:10;;;;;;;3.50;2.28;;;17.20;54.10;;;;;;4429316;32;20093;-73
2022/03/25 08:46:36;;;;;;;3.45;2.40;;;17.30;54.20;;;;;;4429153;32;20070;-74
2022/03/25 08:49:03;;;;;;;2.85;2.47;;;17.30;54.20;;;;;;4429218;32;20078;-73
2022/03/25 08:51:29;;;;;;;2.97;2.50;;;17.30;54.20;;;;;;4429325;32;20066;-72
2022/03/25 08:53:56;;;;;;;2.70;2.45;;;17.30;54.20;;;;;;4428232;32;20103;-73
2022/03/25 08:56:24;;;;;;;3.45;2.25;;;17.30;54.10;;;;;;4429405;32;20071;-73
2022/03/25 08:58:54;;;;;;;3.55;2.45;;;17.30;54.10;;;;;;4431760;32;20078;-74
2022/03/25 09:01:22;;;;;;;6.38;2.40;;;17.30;54.10;;;;;;4432533;32;20447;-73
2022/03/25 09:03:49;;;;;;;3.00;2.30;;;17.30;54.10;;;;;;4432441;32;20548;-73
2022/03/25 09:06:15;;;;;;;3.00;2.38;;;17.30;54.00;;;;;;4430597;32;20097;-73
2022/03/25 09:08:41;;;;;;;3.47;2.60;;;17.30;54.00;;;;;;4430856;32;20236;-73
2022/03/25 09:11:09;;;;;;;3.15;2.20;;;17.30;54.00;;;;;;4432515;32;20086;-73
2022/03/25 09:13:35;;;;;;;3.00;2.22;;;17.30;54.10;;;;;;4431328;32;20140;-73
2022/03/25 09:16:01;;;;;;;3.20;2.38;;;17.30;54.10;;;;;;4432369;32;20121;-73
2022/03/25 09:18:27;;;;;;;2.83;2.15;;;17.30;54.10;;;;;;4432181;32;20319;-74
2022/03/25 09:20:52;;;;;;;3.47;2.33;;;17.30;54.10;;;;;;4431016;32;20081;-73
2022/03/25 09:23:18;;;;;;;3.20;2.47;;;17.30;54.10;;;;;;4432082;32;20288;-73
2022/03/25 09:25:44;;;;;;;2.90;2.40;;;17.30;54.00;;;;;;4430934;32;20188;-73
2022/03/25 09:28:11;;;;;;;2.85;2.50;;;17.30;54.90;;;;;;4431098;32;20102;-73
2022/03/25 09:30:37;;;;;;;5.75;2.50;;;17.30;54.00;;;;;;4432036;32;20082;-73
2022/03/25 09:33:04;;;;;;;2.92;2.38;;;17.30;54.00;;;;;;4432107;32;20168;-73
2022/03/25 09:35:30;;;;;;;3.70;2.78;;;17.30;53.90;;;;;;4431567;32;20075;-72
2022/03/25 09:37:57;;;;;;;3.25;2.30;;;17.30;54.00;;;;;;4430941;32;20078;-73
2022/03/25 09:40:25;;;;;;;3.00;2.20;;;17.30;54.00;;;;;;4431656;32;20074;-73
2022/03/25 09:42:52;;;;;;;3.10;2.42;;;17.30;54.00;;;;;;4431718;32;20188;-73
2022/03/25 09:45:20;;;;;;;3.22;2.45;;;17.30;54.00;;;;;;4431834;32;20078;-73
2022/03/25 09:47:47;;;;;;;3.00;2.50;;;17.30;54.00;;;;;;4431812;32;20090;-73
2022/03/25 09:50:17;;;;;;;3.00;2.55;;;17.30;54.00;;;;;;4430610;32;20079;-73
2022/03/25 09:52:44;;;;;;;2.65;2.10;;;17.30;54.00;;;;;;4431849;32;20118;-73
2022/03/25 09:55:11;;;;;;;2.95;2.17;;;17.30;54.00;;;;;;4430369;32;20078;-73
2022/03/25 09:57:37;;;;;;;2.90;2.58;;;17.30;54.10;;;;;;4431660;32;20160;-72
2022/03/25 10:00:06;;;;;;;2.50;2.17;;;17.30;54.10;;;;;;4431621;32;20082;-73
2022/03/25 10:02:32;;;;;;;2.80;2.40;;;17.30;54.00;;;;;;4431309;32;20091;-72
2022/03/25 10:04:58;;;;;;;2.88;2.28;;;17.30;55.10;;;;;;4431225;32;20093;-73
2022/03/25 10:07:30;;;;;;;3.13;2.72;;;17.20;54.00;;;;;;4431416;32;20114;-73
2022/03/25 10:10:11;;;;;;;4.78;2.28;;;17.20;54.00;;;;;;4430624;32;20086;-73
2022/03/25 10:12:38;;;;;;;2.80;2.40;;;17.20;54.00;;;;;;4431176;32;20221;-72
2022/03/25 10:15:20;;;;;;;2.63;2.22;;;17.20;54.00;;;;;;4430295;32;20110;-73
2022/03/25 10:17:50;;;;;;;4.07;2.25;;;17.20;54.00;;;;;;4431415;32;20089;-73
2022/03/25 10:20:18;;;;;;;2.85;2.38;;;17.20;54.00;;;;;;4431469;32;20074;-73
2022/03/25 10:22:56;;;;;;;2.80;2.40;;;17.20;54.00;;;;;;4431303;32;20161;-73
2022/03/25 10:25:39;;;;;;;4.60;2.58;;;17.20;54.10;;;;;;4430196;32;20066;-73
2022/03/25 10:28:30;;;;;;;3.22;2.78;;;17.20;54.10;;;;;;4431315;32;20101;-73
2022/03/25 10:31:01;;;;;;;2.83;2.33;;;17.20;54.10;;;;;;4431369;32;20105;-73
2022/03/25 10:33:34;;;;;;;3.33;2.15;;;17.20;54.10;;;;;;4431120;32;20550;-73
2022/03/25 10:36:07;;;;;;;;;;;17.20;54.10;;;;;;4431474;32;20093;-73
2022/03/25 10:39:11;;;;;;;2.22;2.03;;;17.20;54.10;;;;;;4430802;32;20499;-73
2022/03/25 10:41:50;;;;;;;3.13;2.50;;;17.20;54.10;;;;;;4429758;32;20101;-74
2022/03/25 10:44:16;;;;;;;2.65;2.22;;;17.20;54.10;;;;;;4431048;32;20079;-73
2022/03/25 10:46:48;;;;;;;2.75;2.47;;;17.20;54.10;;;;;;4429507;32;20078;-73
2022/03/25 10:49:17;;;;;;;3.33;2.45;;;17.20;54.20;;;;;;4430925;32;20555;-73
2022/03/25 10:51:50;;;;;;;2.97;2.47;;;17.20;54.10;;;;;;4430608;32;20089;-73
2022/03/25 10:54:16;;;;;;;4.05;2.50;;;17.20;54.10;;;;;;4431015;32;20097;-73
2022/03/25 10:56:46;;;;;;;2.90;2.33;;;17.20;54.10;;;;;;4429417;32;20074;-73
2022/03/25 10:59:34;;;;;;;3.60;2.33;;;17.20;54.10;;;;;;4430736;32;20232;-73
2022/03/25 11:02:11;;;;;;;2.95;2.70;;;17.20;54.10;;;;;;4429545;32;20074;-73
2022/03/25 11:04:38;;;;;;;3.10;2.60;;;17.20;54.10;;;;;;4430328;32;20496;-72
2022/03/25 11:07:05;;;;;;;3.20;2.50;;;17.20;54.10;;;;;;4430587;32;20122;-73
2022/03/25 11:09:31;;;;;;;3.13;2.42;;;17.10;54.00;;;;;;4430301;32;20133;-73
2022/03/25 11:11:58;;;;;;;2.40;2.17;;;17.20;54.10;;;;;;4430714;32;20595;-73
2022/03/25 11:14:24;;;;;;;3.75;2.70;;;17.20;54.10;;;;;;4430664;32;20094;-73
2022/03/25 11:16:55;;;;;;;4.07;2.53;;;17.20;54.10;;;;;;4430459;32;20433;-73
2022/03/25 11:19:22;;;;;;;3.75;2.78;;;17.20;54.10;;;;;;4430636;32;20082;-74
2022/03/25 11:21:50;;;;;;;2.70;2.30;;;17.20;54.20;;;;;;4429017;32;20173;-73
2022/03/25 11:24:20;;;;;;;3.88;2.70;;;17.20;54.10;;;;;;4430422;32;20101;-73
2022/03/25 11:26:49;;;;;;;3.47;2.72;;;17.20;54.10;;;;;;4430508;32;20080;-74
2022/03/25 11:29:20;;;;;;;3.05;2.72;;;17.10;54.10;;;;;;4430358;32;20086;-73
2022/03/25 11:32:10;;;;;;;3.50;2.70;;;17.20;54.10;;;;;;4430091;32;20090;-73
2022/03/25 11:34:59;;;;;;;3.38;2.90;;;17.10;54.10;;;;;;4429872;32;20523;-72
2022/03/25 11:37:28;;;;;;;4.45;3.33;;;17.20;54.10;;;;;;4424055;32;20435;-73
2022/03/25 11:40:14;;;;;;;3.78;2.83;;;17.20;54.20;;;;;;4430418;32;20677;-73
2022/03/25 11:42:45;;;;;;;3.72;2.95;;;17.10;54.10;;;;;;4430089;32;20164;-75
2022/03/25 11:45:31;;;;;;;3.00;2.63;;;17.10;54.10;;;;;;4430111;32;20099;-75
2022/03/25 11:47:59;;;;;;;3.67;2.75;;;17.10;54.10;;;;;;4429940;32;20097;-75
2022/03/25 11:50:29;;;;;;;4.35;2.92;;;17.10;54.10;;;;;;4429809;32;20106;-75
2022/03/25 11:52:56;;;;;;;3.83;3.03;;;17.10;54.10;;;;;;4430112;32;20121;-73
2022/03/25 11:55:22;;;;;;;3.95;3.15;;;17.10;54.10;;;;;;4429570;32;20580;-73
2022/03/25 11:57:48;;;;;;;4.43;3.47;;;17.10;54.10;;;;;;4429930;32;20135;-73
2022/03/25 12:00:28;;;;;;;3.67;2.78;;;17.10;54.00;;;;;;4429624;32;20145;-74
2022/03/25 12:03:02;;;;;;;3.78;2.90;;;17.10;54.00;;;;;;4429882;32;20763;-74
2022/03/25 12:05:35;;;;;;;4.28;3.40;;;17.20;54.10;;;;;;4429150;32;20082;-73
2022/03/25 12:08:31;;;;;;;3.85;3.08;;;17.10;54.00;;;;;;4429948;32;20090;-73
2022/03/25 12:11:00;;;;;;;3.50;2.70;;;17.10;54.00;;;;;;4426156;32;20086;-73
2022/03/25 12:13:54;;;;;;;4.28;2.90;;;17.10;54.00;;;;;;4414171;32;20102;-73
2022/03/25 12:16:45;;;;;;;3.30;2.90;;;17.10;54.00;;;;;;4414301;32;20083;-74
2022/03/25 12:19:26;;;;;;;3.72;3.10;;;17.10;54.00;;;;;;4414336;32;20535;-73
2022/03/25 12:21:55;;;;;;;3.45;3.00;;;17.10;54.00;;;;;;4414363;32;20075;-73
2022/03/25 12:24:22;;;;;;;4.25;2.78;;;17.10;54.00;;;;;;4414260;32;20145;-74
2022/03/25 12:26:56;;;;;;;2.97;2.67;;;17.10;54.00;;;;;;4413842;32;20911;-73
2022/03/25 12:29:30;;;;;;;3.25;2.90;;;17.20;54.10;;;;;;4414289;32;20086;-74
2022/03/25 12:31:57;;;;;;;3.38;2.88;;;17.20;54.10;;;;;;4414012;32;20071;-74
2022/03/25 12:34:32;;;;;;;3.08;2.72;;;17.10;54.00;;;;;;4413608;32;20085;-73
2022/03/25 12:37:02;;;;;;;4.20;3.20;;;17.20;54.10;;;;;;4414053;32;20074;-73
2022/03/25 12:39:29;;;;;;;3.58;2.80;;;17.20;54.10;;;;;;4414150;32;20534;-74
2022/03/25 12:41:56;;;;;;;3.80;2.83;;;17.20;54.10;;;;;;4414126;32;20086;-74
2022/03/25 12:44:27;;;;;;;3.67;3.05;;;17.20;54.00;;;;;;4425607;32;20085;-74
2022/03/25 12:46:57;;;;;;;3.35;2.60;;;17.20;54.00;;;;;;4414131;32;20094;-74
2022/03/25 12:49:23;;;;;;;3.92;2.85;;;17.20;54.00;;;;;;4414018;32;20228;-71
2022/03/25 12:51:57;;;;;;;3.85;3.08;;;17.20;54.90;;;;;;4413992;32;20604;-72
2022/03/25 12:54:23;;;;;;;5.03;3.20;;;17.20;54.00;;;;;;4414040;32;20221;-79
2022/03/25 12:57:15;;;;;;;7.22;4.32;;;17.20;54.00;;;;;;4413728;32;20077;-67